sensor_id;sensor_type;location;lat;lon;timestamp;temperature;humidity
55036;DHT22;40936;53.008;6.556;2023-06-19T00:01:58;21.30;99.90
55036;DHT22;40936;53.008;6.556;2023-06-19T00:04:24;21.20;99.90
55036;DHT22;40936;53.008;6.556;2023-06-19T00:06:50;21.20;99.90
55036;DHT22;40936;53.008;6.556;2023-06-19T00:09:15;21.10;99.90
55036;DHT22;40936;53.008;6.556;2023-06-19T00:11:42;21.10;99.90
55036;DHT22;40936;53.008;6.556;2023-06-19T00:14:08;21.10;99.90
55036;DHT22;40936;53.008;6.556;2023-06-19T00:16:34;21.10;99.90
55036;DHT22;40936;53.008;6.556;2023-06-19T00:18:59;21.10;99.90
55036;DHT22;40936;53.008;6.556;2023-06-19T00:21:25;21.00;99.90
55036;DHT22;40936;53.008;6.556;2023-06-19T00:23:52;21.00;99.90
55036;DHT22;40936;53.008;6.556;2023-06-19T00:26:18;21.00;99.90
55036;DHT22;40936;53.008;6.556;2023-06-19T00:28:51;21.00;99.90
55036;DHT22;40936;53.008;6.556;2023-06-19T00:31:17;21.00;99.90
55036;DHT22;40936;53.008;6.556;2023-06-19T00:33:45;21.00;99.90
55036;DHT22;40936;53.008;6.556;2023-06-19T00:36:15;21.00;99.90
55036;DHT22;40936;53.008;6.556;2023-06-19T00:38:41;21.00;99.90
55036;DHT22;40936;53.008;6.556;2023-06-19T00:41:08;21.00;99.90
55036;DHT22;40936;53.008;6.556;2023-06-19T00:43:34;21.00;99.90
55036;DHT22;40936;53.008;6.556;2023-06-19T00:46:00;21.00;99.90
55036;DHT22;40936;53.008;6.556;2023-06-19T00:48:31;21.00;99.90
55036;DHT22;40936;53.008;6.556;2023-06-19T00:50:57;21.00;99.90
55036;DHT22;40936;53.008;6.556;2023-06-19T00:53:23;21.00;99.90
55036;DHT22;40936;53.008;6.556;2023-06-19T00:55:51;20.90;99.90
55036;DHT22;40936;53.008;6.556;2023-06-19T00:58:19;20.90;99.90
55036;DHT22;40936;53.008;6.556;2023-06-19T01:00:45;20.90;99.90
55036;DHT22;40936;53.008;6.556;2023-06-19T01:03:10;20.90;99.90
55036;DHT22;40936;53.008;6.556;2023-06-19T01:05:36;20.90;99.90
55036;DHT22;40936;53.008;6.556;2023-06-19T01:10:57;21.00;99.90
55036;DHT22;40936;53.008;6.556;2023-06-19T01:13:47;21.00;99.90
55036;DHT22;40936;53.008;6.556;2023-06-19T01:16:13;21.00;99.90
55036;DHT22;40936;53.008;6.556;2023-06-19T01:18:39;21.00;99.90
55036;DHT22;40936;53.008;6.556;2023-06-19T01:21:13;20.90;99.90
55036;DHT22;40936;53.008;6.556;2023-06-19T01:23:40;21.00;99.90
55036;DHT22;40936;53.008;6.556;2023-06-19T01:26:07;20.90;99.90
55036;DHT22;40936;53.008;6.556;2023-06-19T01:28:34;20.90;99.90
55036;DHT22;40936;53.008;6.556;2023-06-19T01:31:06;20.90;99.90
55036;DHT22;40936;53.008;6.556;2023-06-19T01:33:35;20.90;99.90
55036;DHT22;40936;53.008;6.556;2023-06-19T01:36:02;20.80;99.90
55036;DHT22;40936;53.008;6.556;2023-06-19T01:38:29;20.80;99.90
55036;DHT22;40936;53.008;6.556;2023-06-19T01:40:56;20.80;99.90
55036;DHT22;40936;53.008;6.556;2023-06-19T01:43:23;20.80;99.90
55036;DHT22;40936;53.008;6.556;2023-06-19T01:45:50;20.80;99.90
55036;DHT22;40936;53.008;6.556;2023-06-19T01:48:16;20.70;99.90
55036;DHT22;40936;53.008;6.556;2023-06-19T01:50:46;20.70;99.90
55036;DHT22;40936;53.008;6.556;2023-06-19T01:53:13;20.80;99.90
55036;DHT22;40936;53.008;6.556;2023-06-19T01:55:38;20.80;99.90
55036;DHT22;40936;53.008;6.556;2023-06-19T01:58:04;20.80;99.90
55036;DHT22;40936;53.008;6.556;2023-06-19T02:00:30;20.90;99.90
55036;DHT22;40936;53.008;6.556;2023-06-19T02:02:57;20.90;99.90
55036;DHT22;40936;53.008;6.556;2023-06-19T02:05:23;20.90;99.90
55036;DHT22;40936;53.008;6.556;2023-06-19T02:07:49;20.90;99.90
55036;DHT22;40936;53.008;6.556;2023-06-19T02:10:15;21.00;99.90
55036;DHT22;40936;53.008;6.556;2023-06-19T02:12:40;21.00;99.90
55036;DHT22;40936;53.008;6.556;2023-06-19T02:15:06;21.00;99.90
55036;DHT22;40936;53.008;6.556;2023-06-19T02:17:32;21.00;99.90
55036;DHT22;40936;53.008;6.556;2023-06-19T02:19:58;21.10;99.90
55036;DHT22;40936;53.008;6.556;2023-06-19T02:22:24;21.10;99.90
55036;DHT22;40936;53.008;6.556;2023-06-19T02:24:49;21.20;99.90
55036;DHT22;40936;53.008;6.556;2023-06-19T02:27:15;21.10;99.90
55036;DHT22;40936;53.008;6.556;2023-06-19T02:29:41;21.10;99.90
55036;DHT22;40936;53.008;6.556;2023-06-19T02:32:07;21.20;99.90
55036;DHT22;40936;53.008;6.556;2023-06-19T02:34:33;21.10;99.90
55036;DHT22;40936;53.008;6.556;2023-06-19T02:36:59;21.10;99.90
55036;DHT22;40936;53.008;6.556;2023-06-19T02:39:24;21.20;99.90
55036;DHT22;40936;53.008;6.556;2023-06-19T02:41:50;21.20;99.90
55036;DHT22;40936;53.008;6.556;2023-06-19T02:44:16;21.20;99.90
55036;DHT22;40936;53.008;6.556;2023-06-19T02:46:41;21.20;99.90
55036;DHT22;40936;53.008;6.556;2023-06-19T02:49:07;21.20;99.90
55036;DHT22;40936;53.008;6.556;2023-06-19T02:51:33;21.20;99.90
55036;DHT22;40936;53.008;6.556;2023-06-19T02:53:59;21.20;99.90
55036;DHT22;40936;53.008;6.556;2023-06-19T02:56:26;21.20;99.90
55036;DHT22;40936;53.008;6.556;2023-06-19T02:58:52;21.20;99.90
55036;DHT22;40936;53.008;6.556;2023-06-19T03:01:17;21.20;99.90
55036;DHT22;40936;53.008;6.556;2023-06-19T03:03:43;21.20;99.90
55036;DHT22;40936;53.008;6.556;2023-06-19T03:06:08;21.30;99.90
55036;DHT22;40936;53.008;6.556;2023-06-19T03:08:35;21.20;99.90
55036;DHT22;40936;53.008;6.556;2023-06-19T03:11:01;21.30;99.90
55036;DHT22;40936;53.008;6.556;2023-06-19T03:13:31;21.30;99.90
55036;DHT22;40936;53.008;6.556;2023-06-19T03:15:57;21.30;99.90
55036;DHT22;40936;53.008;6.556;2023-06-19T03:18:23;21.30;99.90
55036;DHT22;40936;53.008;6.556;2023-06-19T03:20:48;21.30;99.90
55036;DHT22;40936;53.008;6.556;2023-06-19T03:23:14;21.30;99.90
55036;DHT22;40936;53.008;6.556;2023-06-19T03:25:40;21.30;99.90
55036;DHT22;40936;53.008;6.556;2023-06-19T03:28:08;21.30;99.90
55036;DHT22;40936;53.008;6.556;2023-06-19T03:30:33;21.30;99.90
55036;DHT22;40936;53.008;6.556;2023-06-19T03:32:59;21.30;99.90
55036;DHT22;40936;53.008;6.556;2023-06-19T03:35:25;21.20;99.90
55036;DHT22;40936;53.008;6.556;2023-06-19T03:37:50;21.30;99.90
55036;DHT22;40936;53.008;6.556;2023-06-19T03:40:16;21.30;99.90
55036;DHT22;40936;53.008;6.556;2023-06-19T03:42:42;21.30;99.90
55036;DHT22;40936;53.008;6.556;2023-06-19T03:45:08;21.30;99.90
55036;DHT22;40936;53.008;6.556;2023-06-19T03:47:33;21.30;99.90
55036;DHT22;40936;53.008;6.556;2023-06-19T03:49:59;21.30;99.90
55036;DHT22;40936;53.008;6.556;2023-06-19T03:52:25;21.30;99.90
55036;DHT22;40936;53.008;6.556;2023-06-19T03:54:50;21.30;99.90
55036;DHT22;40936;53.008;6.556;2023-06-19T03:57:16;21.30;99.90
55036;DHT22;40936;53.008;6.556;2023-06-19T03:59:42;21.20;99.90
55036;DHT22;40936;53.008;6.556;2023-06-19T04:02:07;21.10;99.90
55036;DHT22;40936;53.008;6.556;2023-06-19T04:04:33;21.10;99.90
55036;DHT22;40936;53.008;6.556;2023-06-19T04:06:58;21.10;99.90
55036;DHT22;40936;53.008;6.556;2023-06-19T04:09:25;21.00;99.90
55036;DHT22;40936;53.008;6.556;2023-06-19T04:11:50;20.90;99.90
55036;DHT22;40936;53.008;6.556;2023-06-19T04:14:16;21.00;99.90
55036;DHT22;40936;53.008;6.556;2023-06-19T04:16:42;20.90;99.90
55036;DHT22;40936;53.008;6.556;2023-06-19T04:19:07;20.90;99.90
55036;DHT22;40936;53.008;6.556;2023-06-19T04:21:33;20.90;99.90
55036;DHT22;40936;53.008;6.556;2023-06-19T04:23:59;20.80;99.90
55036;DHT22;40936;53.008;6.556;2023-06-19T04:26:25;20.80;99.90
55036;DHT22;40936;53.008;6.556;2023-06-19T04:28:50;20.80;99.90
55036;DHT22;40936;53.008;6.556;2023-06-19T04:31:16;20.80;99.90
55036;DHT22;40936;53.008;6.556;2023-06-19T04:33:44;20.80;99.90
55036;DHT22;40936;53.008;6.556;2023-06-19T04:36:10;20.70;99.90
55036;DHT22;40936;53.008;6.556;2023-06-19T04:38:36;20.70;99.90
55036;DHT22;40936;53.008;6.556;2023-06-19T04:41:01;20.70;99.90
55036;DHT22;40936;53.008;6.556;2023-06-19T04:43:27;20.70;99.90
55036;DHT22;40936;53.008;6.556;2023-06-19T04:45:53;20.70;99.90
55036;DHT22;40936;53.008;6.556;2023-06-19T04:48:19;20.70;99.90
55036;DHT22;40936;53.008;6.556;2023-06-19T04:50:44;20.70;99.90
55036;DHT22;40936;53.008;6.556;2023-06-19T04:53:10;20.70;99.90
55036;DHT22;40936;53.008;6.556;2023-06-19T04:55:37;20.60;99.90
55036;DHT22;40936;53.008;6.556;2023-06-19T04:58:03;20.50;99.90
55036;DHT22;40936;53.008;6.556;2023-06-19T05:00:28;20.40;99.90
55036;DHT22;40936;53.008;6.556;2023-06-19T05:02:54;20.40;99.90
55036;DHT22;40936;53.008;6.556;2023-06-19T05:05:26;20.30;99.90
55036;DHT22;40936;53.008;6.556;2023-06-19T05:07:52;20.20;99.90
55036;DHT22;40936;53.008;6.556;2023-06-19T05:10:17;20.10;99.90
55036;DHT22;40936;53.008;6.556;2023-06-19T05:12:44;20.10;99.90
55036;DHT22;40936;53.008;6.556;2023-06-19T05:15:10;20.20;99.90
55036;DHT22;40936;53.008;6.556;2023-06-19T05:17:36;20.20;99.90
55036;DHT22;40936;53.008;6.556;2023-06-19T05:20:05;20.20;99.90
55036;DHT22;40936;53.008;6.556;2023-06-19T05:22:32;20.30;99.90
55036;DHT22;40936;53.008;6.556;2023-06-19T05:25:00;20.30;99.90
55036;DHT22;40936;53.008;6.556;2023-06-19T05:27:26;20.50;99.90
55036;DHT22;40936;53.008;6.556;2023-06-19T05:29:51;20.60;99.90
55036;DHT22;40936;53.008;6.556;2023-06-19T05:32:17;20.80;99.90
55036;DHT22;40936;53.008;6.556;2023-06-19T05:34:43;20.90;99.90
55036;DHT22;40936;53.008;6.556;2023-06-19T05:37:08;20.90;99.90
55036;DHT22;40936;53.008;6.556;2023-06-19T05:39:34;21.10;99.90
55036;DHT22;40936;53.008;6.556;2023-06-19T05:42:00;21.10;99.90
55036;DHT22;40936;53.008;6.556;2023-06-19T05:44:25;21.20;99.90
55036;DHT22;40936;53.008;6.556;2023-06-19T05:46:51;21.20;99.90
55036;DHT22;40936;53.008;6.556;2023-06-19T05:49:17;21.30;99.90
55036;DHT22;40936;53.008;6.556;2023-06-19T05:51:42;21.30;99.90
55036;DHT22;40936;53.008;6.556;2023-06-19T05:54:08;21.20;99.90
55036;DHT22;40936;53.008;6.556;2023-06-19T05:56:35;21.20;99.90
55036;DHT22;40936;53.008;6.556;2023-06-19T05:59:02;21.10;99.90
55036;DHT22;40936;53.008;6.556;2023-06-19T06:01:28;21.00;99.90
55036;DHT22;40936;53.008;6.556;2023-06-19T06:03:55;21.00;99.90
55036;DHT22;40936;53.008;6.556;2023-06-19T06:06:21;20.90;99.90
55036;DHT22;40936;53.008;6.556;2023-06-19T06:08:46;20.90;99.90
55036;DHT22;40936;53.008;6.556;2023-06-19T06:11:12;21.00;99.90
55036;DHT22;40936;53.008;6.556;2023-06-19T06:13:38;21.00;99.90
55036;DHT22;40936;53.008;6.556;2023-06-19T06:16:04;21.00;99.90
55036;DHT22;40936;53.008;6.556;2023-06-19T06:18:29;21.00;99.90
55036;DHT22;40936;53.008;6.556;2023-06-19T06:20:56;21.10;99.90
55036;DHT22;40936;53.008;6.556;2023-06-19T06:23:25;21.00;99.90
55036;DHT22;40936;53.008;6.556;2023-06-19T06:25:50;21.10;99.90
55036;DHT22;40936;53.008;6.556;2023-06-19T06:28:16;21.20;99.90
55036;DHT22;40936;53.008;6.556;2023-06-19T06:30:43;21.10;99.90
55036;DHT22;40936;53.008;6.556;2023-06-19T06:33:09;21.00;99.90
55036;DHT22;40936;53.008;6.556;2023-06-19T06:35:35;21.00;99.90
55036;DHT22;40936;53.008;6.556;2023-06-19T06:38:02;20.90;99.90
55036;DHT22;40936;53.008;6.556;2023-06-19T06:40:28;20.80;99.90
55036;DHT22;40936;53.008;6.556;2023-06-19T06:42:53;20.80;99.90
55036;DHT22;40936;53.008;6.556;2023-06-19T06:45:19;20.70;99.90
55036;DHT22;40936;53.008;6.556;2023-06-19T06:47:45;20.60;99.90
55036;DHT22;40936;53.008;6.556;2023-06-19T06:50:10;20.70;99.90
55036;DHT22;40936;53.008;6.556;2023-06-19T06:52:37;20.70;99.90
55036;DHT22;40936;53.008;6.556;2023-06-19T06:55:03;20.70;99.90
55036;DHT22;40936;53.008;6.556;2023-06-19T06:57:29;20.70;99.90
55036;DHT22;40936;53.008;6.556;2023-06-19T06:59:55;20.60;99.90
55036;DHT22;40936;53.008;6.556;2023-06-19T07:02:20;20.60;99.90
55036;DHT22;40936;53.008;6.556;2023-06-19T07:04:46;20.50;99.90
55036;DHT22;40936;53.008;6.556;2023-06-19T07:07:12;20.50;99.90
55036;DHT22;40936;53.008;6.556;2023-06-19T07:09:37;20.40;99.90
55036;DHT22;40936;53.008;6.556;2023-06-19T07:12:03;20.30;99.90
55036;DHT22;40936;53.008;6.556;2023-06-19T07:14:30;20.20;99.90
55036;DHT22;40936;53.008;6.556;2023-06-19T07:16:56;20.00;99.90
55036;DHT22;40936;53.008;6.556;2023-06-19T07:19:22;20.00;99.90
55036;DHT22;40936;53.008;6.556;2023-06-19T07:21:49;19.90;99.90
55036;DHT22;40936;53.008;6.556;2023-06-19T07:24:15;19.90;99.90
55036;DHT22;40936;53.008;6.556;2023-06-19T07:26:41;19.90;99.90
55036;DHT22;40936;53.008;6.556;2023-06-19T07:29:07;20.10;99.90
55036;DHT22;40936;53.008;6.556;2023-06-19T07:31:33;20.20;99.90
55036;DHT22;40936;53.008;6.556;2023-06-19T07:33:58;20.30;99.90
55036;DHT22;40936;53.008;6.556;2023-06-19T07:36:24;20.20;99.90
55036;DHT22;40936;53.008;6.556;2023-06-19T07:38:50;20.10;99.90
55036;DHT22;40936;53.008;6.556;2023-06-19T07:41:15;20.10;99.90
55036;DHT22;40936;53.008;6.556;2023-06-19T07:43:41;20.10;99.90
55036;DHT22;40936;53.008;6.556;2023-06-19T07:46:07;20.20;99.90
55036;DHT22;40936;53.008;6.556;2023-06-19T07:48:32;20.20;99.90
55036;DHT22;40936;53.008;6.556;2023-06-19T07:50:58;20.20;99.90
55036;DHT22;40936;53.008;6.556;2023-06-19T07:53:24;20.20;99.90
55036;DHT22;40936;53.008;6.556;2023-06-19T07:55:49;20.20;99.90
55036;DHT22;40936;53.008;6.556;2023-06-19T07:58:15;20.10;99.90
55036;DHT22;40936;53.008;6.556;2023-06-19T08:00:41;20.10;99.90
55036;DHT22;40936;53.008;6.556;2023-06-19T08:03:06;20.10;99.90
55036;DHT22;40936;53.008;6.556;2023-06-19T08:05:32;20.10;99.90
55036;DHT22;40936;53.008;6.556;2023-06-19T08:08:01;20.10;99.90
55036;DHT22;40936;53.008;6.556;2023-06-19T08:10:27;20.10;99.90
55036;DHT22;40936;53.008;6.556;2023-06-19T08:12:53;20.10;99.90
55036;DHT22;40936;53.008;6.556;2023-06-19T08:15:18;20.10;99.90
55036;DHT22;40936;53.008;6.556;2023-06-19T08:17:44;20.10;99.90
55036;DHT22;40936;53.008;6.556;2023-06-19T08:20:10;20.10;99.90
55036;DHT22;40936;53.008;6.556;2023-06-19T08:22:36;20.10;99.90
55036;DHT22;40936;53.008;6.556;2023-06-19T08:25:03;20.00;99.90
55036;DHT22;40936;53.008;6.556;2023-06-19T08:27:29;20.00;99.90
55036;DHT22;40936;53.008;6.556;2023-06-19T08:29:55;20.10;99.90
55036;DHT22;40936;53.008;6.556;2023-06-19T08:32:20;20.10;99.90
55036;DHT22;40936;53.008;6.556;2023-06-19T08:34:46;20.20;99.90
55036;DHT22;40936;53.008;6.556;2023-06-19T08:37:12;20.30;99.90
55036;DHT22;40936;53.008;6.556;2023-06-19T08:39:37;20.30;99.90
55036;DHT22;40936;53.008;6.556;2023-06-19T08:42:08;20.20;99.90
55036;DHT22;40936;53.008;6.556;2023-06-19T08:44:35;20.10;99.90
55036;DHT22;40936;53.008;6.556;2023-06-19T08:47:05;19.90;99.90
55036;DHT22;40936;53.008;6.556;2023-06-19T08:49:33;19.90;99.90
55036;DHT22;40936;53.008;6.556;2023-06-19T08:51:59;19.80;99.90
55036;DHT22;40936;53.008;6.556;2023-06-19T08:54:24;19.80;99.90
55036;DHT22;40936;53.008;6.556;2023-06-19T08:56:51;19.80;99.90
55036;DHT22;40936;53.008;6.556;2023-06-19T08:59:19;19.80;99.90
55036;DHT22;40936;53.008;6.556;2023-06-19T09:01:49;19.90;99.90
55036;DHT22;40936;53.008;6.556;2023-06-19T09:04:22;19.90;99.90
55036;DHT22;40936;53.008;6.556;2023-06-19T09:06:59;20.00;99.90
55036;DHT22;40936;53.008;6.556;2023-06-19T09:09:25;20.10;99.90
55036;DHT22;40936;53.008;6.556;2023-06-19T09:14:42;20.60;99.90
55036;DHT22;40936;53.008;6.556;2023-06-19T09:17:14;21.60;99.90
55036;DHT22;40936;53.008;6.556;2023-06-19T09:19:52;22.60;99.90
55036;DHT22;40936;53.008;6.556;2023-06-19T09:22:21;22.70;99.90
55036;DHT22;40936;53.008;6.556;2023-06-19T09:24:47;22.60;99.90
55036;DHT22;40936;53.008;6.556;2023-06-19T09:27:15;22.40;99.90
55036;DHT22;40936;53.008;6.556;2023-06-19T09:29:45;21.90;99.90
55036;DHT22;40936;53.008;6.556;2023-06-19T09:32:19;21.70;99.90
55036;DHT22;40936;53.008;6.556;2023-06-19T09:34:45;21.40;99.90
55036;DHT22;40936;53.008;6.556;2023-06-19T09:37:12;21.30;99.90
55036;DHT22;40936;53.008;6.556;2023-06-19T09:39:38;21.20;99.90
55036;DHT22;40936;53.008;6.556;2023-06-19T09:42:07;21.60;99.90
55036;DHT22;40936;53.008;6.556;2023-06-19T09:44:41;21.90;99.90
55036;DHT22;40936;53.008;6.556;2023-06-19T09:47:22;22.20;99.90
55036;DHT22;40936;53.008;6.556;2023-06-19T09:49:54;22.10;99.90
55036;DHT22;40936;53.008;6.556;2023-06-19T09:52:21;22.20;99.90
55036;DHT22;40936;53.008;6.556;2023-06-19T09:54:53;22.10;99.90
55036;DHT22;40936;53.008;6.556;2023-06-19T09:57:19;22.20;99.90
55036;DHT22;40936;53.008;6.556;2023-06-19T09:59:52;22.20;99.90
55036;DHT22;40936;53.008;6.556;2023-06-19T10:02:19;22.00;99.90
55036;DHT22;40936;53.008;6.556;2023-06-19T10:04:52;21.80;99.90
55036;DHT22;40936;53.008;6.556;2023-06-19T10:07:20;22.00;99.90
55036;DHT22;40936;53.008;6.556;2023-06-19T10:10:08;21.80;99.90
55036;DHT22;40936;53.008;6.556;2023-06-19T10:12:45;21.70;99.90
55036;DHT22;40936;53.008;6.556;2023-06-19T10:15:31;21.80;99.90
55036;DHT22;40936;53.008;6.556;2023-06-19T10:18:04;21.70;99.90
55036;DHT22;40936;53.008;6.556;2023-06-19T10:20:35;21.80;99.90
55036;DHT22;40936;53.008;6.556;2023-06-19T10:23:16;21.70;99.90
55036;DHT22;40936;53.008;6.556;2023-06-19T10:25:45;21.70;99.90
55036;DHT22;40936;53.008;6.556;2023-06-19T10:30:43;22.00;99.90
55036;DHT22;40936;53.008;6.556;2023-06-19T10:33:09;22.00;99.90
55036;DHT22;40936;53.008;6.556;2023-06-19T10:35:41;22.10;99.90
55036;DHT22;40936;53.008;6.556;2023-06-19T10:38:07;22.30;99.90
55036;DHT22;40936;53.008;6.556;2023-06-19T10:40:36;22.10;99.90
55036;DHT22;40936;53.008;6.556;2023-06-19T10:43:03;22.40;99.90
55036;DHT22;40936;53.008;6.556;2023-06-19T10:45:29;22.60;99.90
55036;DHT22;40936;53.008;6.556;2023-06-19T10:47:56;22.60;99.90
55036;DHT22;40936;53.008;6.556;2023-06-19T10:50:22;22.50;99.90
55036;DHT22;40936;53.008;6.556;2023-06-19T10:52:48;22.70;99.90
55036;DHT22;40936;53.008;6.556;2023-06-19T10:55:19;22.50;99.90
55036;DHT22;40936;53.008;6.556;2023-06-19T10:57:48;22.70;99.90
55036;DHT22;40936;53.008;6.556;2023-06-19T11:00:32;22.60;99.90
55036;DHT22;40936;53.008;6.556;2023-06-19T11:02:59;22.70;99.90
55036;DHT22;40936;53.008;6.556;2023-06-19T11:05:26;22.50;99.90
55036;DHT22;40936;53.008;6.556;2023-06-19T11:07:56;22.40;99.90
55036;DHT22;40936;53.008;6.556;2023-06-19T11:10:24;22.70;99.90
55036;DHT22;40936;53.008;6.556;2023-06-19T11:12:57;23.00;99.90
55036;DHT22;40936;53.008;6.556;2023-06-19T11:15:34;23.30;99.90
55036;DHT22;40936;53.008;6.556;2023-06-19T11:18:00;23.50;99.90
55036;DHT22;40936;53.008;6.556;2023-06-19T11:20:26;23.70;99.90
55036;DHT22;40936;53.008;6.556;2023-06-19T11:23:02;23.90;99.90
55036;DHT22;40936;53.008;6.556;2023-06-19T11:25:38;24.00;99.90
55036;DHT22;40936;53.008;6.556;2023-06-19T11:28:14;24.80;99.90
55036;DHT22;40936;53.008;6.556;2023-06-19T11:30:41;26.20;99.90
55036;DHT22;40936;53.008;6.556;2023-06-19T11:33:22;27.20;99.90
55036;DHT22;40936;53.008;6.556;2023-06-19T11:35:51;27.70;99.90
55036;DHT22;40936;53.008;6.556;2023-06-19T11:38:21;26.60;99.90
55036;DHT22;40936;53.008;6.556;2023-06-19T11:40:47;26.30;99.90
55036;DHT22;40936;53.008;6.556;2023-06-19T11:43:27;25.60;99.90
55036;DHT22;40936;53.008;6.556;2023-06-19T11:45:53;25.60;99.90
55036;DHT22;40936;53.008;6.556;2023-06-19T11:48:23;26.30;99.90
55036;DHT22;40936;53.008;6.556;2023-06-19T11:50:49;26.70;99.90
55036;DHT22;40936;53.008;6.556;2023-06-19T11:53:16;26.70;99.90
55036;DHT22;40936;53.008;6.556;2023-06-19T11:55:42;26.00;99.90
55036;DHT22;40936;53.008;6.556;2023-06-19T11:58:09;25.80;99.90
55036;DHT22;40936;53.008;6.556;2023-06-19T12:00:38;25.50;99.90
55036;DHT22;40936;53.008;6.556;2023-06-19T12:03:04;25.60;99.90
55036;DHT22;40936;53.008;6.556;2023-06-19T12:05:30;25.50;99.90
55036;DHT22;40936;53.008;6.556;2023-06-19T12:07:56;25.20;99.90
55036;DHT22;40936;53.008;6.556;2023-06-19T12:10:22;25.40;99.90
55036;DHT22;40936;53.008;6.556;2023-06-19T12:12:47;25.50;99.90
55036;DHT22;40936;53.008;6.556;2023-06-19T12:15:13;26.20;99.90
55036;DHT22;40936;53.008;6.556;2023-06-19T12:17:39;26.40;99.90
55036;DHT22;40936;53.008;6.556;2023-06-19T12:20:05;25.40;99.90
55036;DHT22;40936;53.008;6.556;2023-06-19T12:22:34;25.40;99.90
55036;DHT22;40936;53.008;6.556;2023-06-19T12:25:00;26.00;99.90
55036;DHT22;40936;53.008;6.556;2023-06-19T12:27:26;25.20;99.90
55036;DHT22;40936;53.008;6.556;2023-06-19T12:29:52;24.70;99.90
55036;DHT22;40936;53.008;6.556;2023-06-19T12:32:18;24.80;99.90
55036;DHT22;40936;53.008;6.556;2023-06-19T12:34:43;24.70;99.90
55036;DHT22;40936;53.008;6.556;2023-06-19T12:37:15;24.70;99.90
55036;DHT22;40936;53.008;6.556;2023-06-19T12:39:43;25.00;99.90
55036;DHT22;40936;53.008;6.556;2023-06-19T12:42:09;25.30;99.90
55036;DHT22;40936;53.008;6.556;2023-06-19T12:44:41;25.50;99.90
55036;DHT22;40936;53.008;6.556;2023-06-19T12:47:07;25.40;99.90
55036;DHT22;40936;53.008;6.556;2023-06-19T12:49:33;25.20;99.90
55036;DHT22;40936;53.008;6.556;2023-06-19T12:51:59;25.20;99.90
55036;DHT22;40936;53.008;6.556;2023-06-19T12:54:25;25.60;99.90
55036;DHT22;40936;53.008;6.556;2023-06-19T12:56:51;25.80;99.90
55036;DHT22;40936;53.008;6.556;2023-06-19T12:59:17;25.70;99.90
55036;DHT22;40936;53.008;6.556;2023-06-19T13:01:42;25.90;99.90
55036;DHT22;40936;53.008;6.556;2023-06-19T13:04:09;25.70;99.90
55036;DHT22;40936;53.008;6.556;2023-06-19T13:06:36;25.50;99.90
55036;DHT22;40936;53.008;6.556;2023-06-19T13:09:02;25.60;99.90
55036;DHT22;40936;53.008;6.556;2023-06-19T13:11:28;25.90;99.90
55036;DHT22;40936;53.008;6.556;2023-06-19T13:13:54;26.00;99.90
55036;DHT22;40936;53.008;6.556;2023-06-19T13:16:19;25.90;99.90
55036;DHT22;40936;53.008;6.556;2023-06-19T13:18:45;25.70;99.90
55036;DHT22;40936;53.008;6.556;2023-06-19T13:21:12;25.90;99.90
55036;DHT22;40936;53.008;6.556;2023-06-19T13:23:37;25.70;99.90
55036;DHT22;40936;53.008;6.556;2023-06-19T13:26:05;25.50;99.90
55036;DHT22;40936;53.008;6.556;2023-06-19T13:28:31;25.80;99.90
55036;DHT22;40936;53.008;6.556;2023-06-19T13:30:57;25.90;99.90
55036;DHT22;40936;53.008;6.556;2023-06-19T13:33:22;26.20;99.90
55036;DHT22;40936;53.008;6.556;2023-06-19T13:35:48;26.20;99.90
55036;DHT22;40936;53.008;6.556;2023-06-19T13:38:14;25.80;99.90
55036;DHT22;40936;53.008;6.556;2023-06-19T13:40:41;26.00;99.90
55036;DHT22;40936;53.008;6.556;2023-06-19T13:43:07;26.00;99.90
55036;DHT22;40936;53.008;6.556;2023-06-19T13:45:33;25.80;99.90
55036;DHT22;40936;53.008;6.556;2023-06-19T13:48:00;25.70;99.90
55036;DHT22;40936;53.008;6.556;2023-06-19T13:50:27;25.90;99.90
55036;DHT22;40936;53.008;6.556;2023-06-19T13:52:53;25.70;99.90
55036;DHT22;40936;53.008;6.556;2023-06-19T13:55:20;25.60;99.90
55036;DHT22;40936;53.008;6.556;2023-06-19T13:57:46;25.70;99.90
55036;DHT22;40936;53.008;6.556;2023-06-19T14:00:12;25.80;99.90
55036;DHT22;40936;53.008;6.556;2023-06-19T14:02:38;25.60;99.90
55036;DHT22;40936;53.008;6.556;2023-06-19T14:05:06;25.80;99.90
55036;DHT22;40936;53.008;6.556;2023-06-19T14:07:32;25.90;99.90
55036;DHT22;40936;53.008;6.556;2023-06-19T14:09:59;25.90;99.90
55036;DHT22;40936;53.008;6.556;2023-06-19T14:12:25;25.90;99.90
55036;DHT22;40936;53.008;6.556;2023-06-19T14:14:51;26.00;99.90
55036;DHT22;40936;53.008;6.556;2023-06-19T14:17:17;25.80;99.90
55036;DHT22;40936;53.008;6.556;2023-06-19T14:19:43;25.70;99.90
55036;DHT22;40936;53.008;6.556;2023-06-19T14:22:08;25.60;99.90
55036;DHT22;40936;53.008;6.556;2023-06-19T14:24:34;25.40;99.90
55036;DHT22;40936;53.008;6.556;2023-06-19T14:27:00;25.40;99.90
55036;DHT22;40936;53.008;6.556;2023-06-19T14:29:25;25.40;99.90
55036;DHT22;40936;53.008;6.556;2023-06-19T14:31:52;25.50;99.90
55036;DHT22;40936;53.008;6.556;2023-06-19T14:34:19;25.50;99.90
55036;DHT22;40936;53.008;6.556;2023-06-19T14:36:45;25.40;99.90
55036;DHT22;40936;53.008;6.556;2023-06-19T14:39:11;25.30;99.90
55036;DHT22;40936;53.008;6.556;2023-06-19T14:41:37;25.30;99.90
55036;DHT22;40936;53.008;6.556;2023-06-19T14:44:06;25.30;99.90
55036;DHT22;40936;53.008;6.556;2023-06-19T14:46:32;25.50;99.90
55036;DHT22;40936;53.008;6.556;2023-06-19T14:48:58;25.60;99.90
55036;DHT22;40936;53.008;6.556;2023-06-19T14:51:26;25.60;99.90
55036;DHT22;40936;53.008;6.556;2023-06-19T14:53:52;25.70;99.90
55036;DHT22;40936;53.008;6.556;2023-06-19T14:56:18;25.70;99.90
55036;DHT22;40936;53.008;6.556;2023-06-19T14:58:43;25.80;99.90
55036;DHT22;40936;53.008;6.556;2023-06-19T15:01:09;25.80;99.90
55036;DHT22;40936;53.008;6.556;2023-06-19T15:03:35;25.80;99.90
55036;DHT22;40936;53.008;6.556;2023-06-19T15:06:03;25.90;99.90
55036;DHT22;40936;53.008;6.556;2023-06-19T15:08:29;26.10;99.90
55036;DHT22;40936;53.008;6.556;2023-06-19T15:10:56;26.30;99.90
55036;DHT22;40936;53.008;6.556;2023-06-19T15:13:23;26.50;99.90
55036;DHT22;40936;53.008;6.556;2023-06-19T15:15:48;26.90;99.90
55036;DHT22;40936;53.008;6.556;2023-06-19T15:18:16;27.40;99.90
55036;DHT22;40936;53.008;6.556;2023-06-19T15:20:41;27.80;99.90
55036;DHT22;40936;53.008;6.556;2023-06-19T15:23:08;28.00;99.90
55036;DHT22;40936;53.008;6.556;2023-06-19T15:25:34;28.00;99.90
55036;DHT22;40936;53.008;6.556;2023-06-19T15:28:00;28.10;99.90
55036;DHT22;40936;53.008;6.556;2023-06-19T15:30:26;28.10;99.90
55036;DHT22;40936;53.008;6.556;2023-06-19T15:32:52;28.20;99.90
55036;DHT22;40936;53.008;6.556;2023-06-19T15:35:18;28.20;99.90
55036;DHT22;40936;53.008;6.556;2023-06-19T15:37:44;28.00;99.90